createdAt,value
2018-01-05T01:39:52.352Z,0.60
2018-01-05T01:42:19.927Z,0.50
2018-01-05T01:44:48.328Z,0.50
2018-01-05T01:47:15.881Z,0.50
2018-01-05T01:49:43.515Z,0.60
2018-01-05T01:52:11.552Z,0.70
2018-01-05T01:54:39.596Z,0.50
2018-01-05T01:57:08.673Z,0.60
2018-01-05T01:59:36.299Z,0.60
2018-01-05T02:02:03.923Z,0.50
2018-01-05T02:04:31.552Z,0.60
2018-01-05T02:06:59.189Z,0.50
2018-01-05T02:09:26.811Z,0.60
2018-01-05T02:11:55.216Z,0.50
2018-01-05T02:14:22.777Z,0.60
2018-01-05T02:16:50.320Z,0.53
2018-01-05T02:19:18.711Z,0.50
2018-01-05T02:21:46.647Z,0.60
2018-01-05T02:24:14.214Z,0.50
2018-01-05T02:26:42.741Z,0.60
2018-01-05T02:29:10.355Z,0.50
2018-01-05T02:31:38.731Z,0.50
2018-01-05T02:34:16.133Z,0.60
2018-01-05T02:36:44.447Z,0.60
2018-01-05T02:39:12.053Z,0.50
2018-01-05T02:41:39.623Z,0.50
2018-01-05T02:44:07.960Z,0.50
2018-01-05T02:46:35.560Z,0.50
2018-01-05T02:49:04.086Z,0.50
2018-01-05T02:51:31.677Z,0.50
2018-01-05T02:53:59.372Z,0.67
2018-01-05T02:56:26.951Z,0.50
2018-01-05T02:58:54.505Z,0.60
2018-01-05T03:01:22.118Z,0.50
2018-01-05T03:03:50.503Z,0.50
2018-01-05T03:06:18.102Z,0.60
2018-01-05T03:08:45.663Z,0.50
2018-01-05T03:11:13.264Z,0.50
2018-01-05T03:13:40.757Z,0.50
2018-01-05T03:16:09.086Z,0.50
2018-01-05T03:18:36.697Z,0.50
2018-01-05T03:21:05.039Z,0.53
2018-01-05T03:23:32.611Z,0.50
2018-01-05T03:26:00.109Z,0.50
2018-01-05T03:28:27.692Z,0.50
2018-01-05T03:30:55.329Z,0.50
2018-01-05T03:33:22.887Z,0.50
2018-01-05T03:35:50.477Z,0.50
2018-01-05T03:38:18.122Z,0.50
2018-01-05T03:40:45.731Z,0.50
2018-01-05T03:43:14.151Z,0.50
2018-01-05T03:45:41.780Z,0.50
2018-01-05T03:48:10.023Z,0.50
2018-01-05T03:50:44.904Z,0.50
2018-01-05T03:53:13.262Z,0.60
2018-01-05T03:55:40.855Z,0.50
2018-01-05T03:58:08.448Z,0.60
2018-01-05T04:00:36.118Z,0.57
2018-01-05T04:03:05.621Z,0.50
2018-01-05T04:05:33.253Z,0.50
2018-01-05T04:08:01.971Z,0.50
2018-01-05T04:10:29.523Z,0.50
2018-01-05T04:12:57.216Z,0.50
2018-01-05T04:15:24.796Z,0.50
2018-01-05T04:17:52.314Z,0.50
2018-01-05T04:20:19.949Z,0.60
2018-01-05T04:22:47.484Z,0.80
2018-01-05T04:25:15.315Z,0.70
2018-01-05T04:27:42.865Z,0.90
2018-01-05T04:30:10.444Z,2.00
2018-01-05T04:32:38.859Z,0.50
2018-01-05T04:35:06.421Z,0.60
2018-01-05T04:37:41.571Z,0.80
2018-01-05T04:40:09.126Z,0.90
2018-01-05T04:42:36.760Z,1.00
2018-01-05T04:45:04.441Z,0.80
2018-01-05T04:47:32.066Z,0.80
2018-01-05T04:50:00.510Z,0.70
2018-01-05T04:52:28.106Z,0.60
2018-01-05T04:54:55.732Z,0.60
2018-01-05T04:57:23.543Z,0.63
2018-01-05T04:59:51.089Z,0.70
2018-01-05T05:02:19.538Z,0.60
2018-01-05T05:04:47.139Z,0.60
2018-01-05T05:07:14.746Z,0.50
2018-01-05T05:09:54.810Z,0.50
2018-01-05T05:12:22.391Z,0.50
2018-01-05T05:14:49.988Z,0.50
2018-01-05T05:17:17.633Z,0.60
2018-01-05T05:19:45.227Z,0.50
2018-01-05T05:22:12.930Z,0.50
2018-01-05T05:24:41.260Z,0.50
2018-01-05T05:27:08.899Z,0.60
2018-01-05T05:29:55.722Z,0.60
2018-01-05T05:32:23.278Z,0.50
2018-01-05T05:34:50.931Z,0.70
2018-01-05T05:37:18.491Z,0.60
2018-01-05T05:39:46.223Z,0.50
2018-01-05T05:42:14.568Z,0.70
2018-01-05T05:44:42.169Z,0.60
2018-01-05T05:47:10.557Z,0.60
2018-01-05T05:49:38.168Z,0.60
2018-01-05T05:52:05.753Z,0.50
2018-01-05T05:54:34.221Z,0.80
2018-01-05T05:57:01.886Z,0.50
2018-01-05T05:59:29.443Z,0.50
2018-01-05T06:01:57.109Z,0.50
2018-01-05T06:04:24.720Z,0.50
2018-01-05T06:06:52.276Z,0.70
2018-01-05T06:09:20.048Z,0.50
2018-01-05T06:11:47.631Z,0.50
2018-01-05T06:14:15.989Z,1.07
2018-01-05T06:16:47.850Z,0.63
2018-01-05T06:19:15.560Z,0.70
2018-01-05T06:21:43.965Z,0.50
2018-01-05T06:24:11.545Z,0.57
2018-01-05T06:26:39.159Z,0.80
2018-01-05T06:29:07.467Z,0.70
2018-01-05T06:31:47.081Z,0.70
2018-01-05T06:34:14.693Z,0.80
2018-01-05T06:36:42.259Z,0.60
2018-01-05T06:39:10.036Z,1.13
2018-01-05T06:41:37.644Z,1.30
2018-01-05T06:44:08.887Z,3.93
2018-01-05T06:46:36.492Z,6.43
2018-01-05T06:49:04.112Z,5.20
2018-01-05T06:51:31.730Z,3.03
2018-01-05T06:53:59.276Z,3.07
2018-01-05T06:56:26.826Z,1.83
2018-01-05T06:58:54.410Z,1.57
2018-01-05T07:01:22.020Z,2.50
2018-01-05T07:03:49.682Z,8.77
2018-01-05T07:06:17.226Z,11.40
2018-01-05T07:08:44.865Z,18.10
2018-01-05T07:11:13.234Z,14.77
2018-01-05T07:13:51.323Z,10.17
2018-01-05T07:16:18.863Z,4.60
2018-01-05T07:18:46.449Z,5.03
2018-01-05T07:21:14.968Z,3.80
2018-01-05T07:23:42.527Z,4.03
2018-01-05T07:26:10.928Z,11.60
2018-01-05T07:28:38.509Z,6.97
2018-01-05T07:31:06.156Z,4.57
2018-01-05T07:33:33.761Z,7.30
2018-01-05T07:36:02.052Z,4.67
2018-01-05T07:38:30.400Z,4.30
2018-01-05T07:40:58.051Z,4.17
2018-01-05T07:43:25.865Z,3.70
2018-01-05T07:45:53.482Z,4.37
2018-01-05T07:48:21.146Z,8.60
2018-01-05T07:50:48.793Z,8.40
2018-01-05T07:53:16.367Z,13.67
2018-01-05T07:55:43.947Z,12.00
2018-01-05T07:58:12.250Z,13.90
2018-01-05T08:00:59.288Z,9.20
2018-01-05T08:03:26.921Z,4.97
2018-01-05T08:05:55.307Z,5.23
2018-01-05T08:08:22.829Z,4.80
2018-01-05T08:10:50.526Z,4.07
2018-01-05T08:13:18.201Z,4.57
2018-01-05T08:15:45.858Z,4.90
2018-01-05T08:18:13.413Z,3.93
2018-01-05T08:20:41.064Z,4.97
2018-01-05T08:23:08.678Z,3.40
2018-01-05T08:25:36.374Z,2.63
2018-01-05T08:28:04.793Z,1.13
2018-01-05T08:30:32.507Z,1.00
2018-01-05T08:33:00.920Z,0.80
2018-01-05T08:35:31.645Z,1.20
2018-01-05T08:37:59.352Z,1.90
2018-01-05T08:40:27.203Z,3.63
2018-01-05T08:43:15.887Z,2.67
2018-01-05T08:45:43.440Z,3.83
2018-01-05T08:48:11.017Z,4.03
2018-01-05T08:50:39.941Z,2.90
2018-01-05T08:56:14.720Z,3.20
2018-01-05T08:58:42.314Z,2.67
2018-01-05T09:01:11.491Z,3.40
2018-01-05T09:03:39.126Z,3.17
2018-01-05T09:06:06.744Z,2.87
2018-01-05T09:08:35.127Z,3.30
2018-01-05T09:11:02.780Z,1.87
2018-01-05T09:13:31.687Z,1.30
2018-01-05T09:15:59.368Z,1.27
2018-01-05T09:18:26.966Z,1.10
2018-01-05T09:20:54.536Z,1.70
2018-01-05T09:23:22.158Z,1.40
2018-01-05T09:25:49.821Z,1.60
2018-01-05T09:28:17.378Z,0.77
2018-01-05T09:30:45.011Z,1.17
2018-01-05T09:33:12.619Z,0.80
2018-01-05T09:35:40.218Z,1.40
2018-01-05T09:38:08.545Z,1.00
2018-01-05T09:40:36.519Z,1.03
2018-01-05T09:43:04.133Z,1.50
2018-01-05T09:45:31.687Z,1.20
2018-01-05T09:47:59.215Z,1.10
2018-01-05T09:50:26.877Z,1.20
2018-01-05T09:52:54.509Z,1.63
2018-01-05T09:55:22.079Z,1.10
2018-01-05T09:57:49.599Z,1.10
2018-01-05T10:00:17.196Z,1.40
2018-01-05T10:02:44.789Z,1.27
2018-01-05T10:05:12.425Z,1.03
2018-01-05T10:07:40.566Z,1.03
2018-01-05T10:10:08.128Z,1.20
2018-01-05T10:12:41.650Z,1.47
2018-01-05T10:15:09.212Z,1.77
2018-01-05T10:17:36.819Z,2.10
2018-01-05T10:20:04.493Z,1.70
2018-01-05T10:22:32.065Z,1.63
2018-01-05T10:24:59.757Z,1.00
2018-01-05T10:27:27.318Z,1.10
2018-01-05T10:29:54.868Z,1.00
2018-01-05T10:32:22.498Z,0.80
2018-01-05T10:34:50.037Z,1.13
2018-01-05T10:37:17.581Z,1.70
2018-01-05T10:39:45.193Z,1.80
2018-01-05T10:42:12.836Z,2.20
2018-01-05T10:44:40.411Z,1.50
2018-01-05T10:47:08.019Z,0.80
2018-01-05T10:52:41.393Z,0.73
2018-01-05T10:55:19.400Z,0.83
2018-01-05T10:57:50.430Z,1.60
2018-01-05T11:00:19.077Z,1.80
2018-01-05T11:02:55.910Z,1.50
2018-01-05T11:05:24.324Z,1.70
2018-01-05T11:07:51.960Z,1.93
2018-01-05T11:10:19.557Z,3.03
2018-01-05T11:12:47.923Z,3.97
2018-01-05T11:15:16.212Z,2.80
2018-01-05T11:17:44.793Z,2.73
2018-01-05T11:20:12.253Z,2.10
2018-01-05T11:22:39.808Z,1.58
2018-01-05T11:25:08.192Z,1.43
2018-01-05T11:27:35.833Z,1.50
2018-01-05T11:30:04.110Z,1.40
2018-01-05T11:32:33.344Z,1.33
2018-01-05T11:35:01.006Z,1.30
2018-01-05T11:37:28.621Z,1.13
2018-01-05T11:39:56.114Z,0.87
2018-01-05T11:42:23.804Z,1.10
2018-01-05T11:44:51.329Z,1.03
2018-01-05T11:47:19.006Z,1.00
2018-01-05T11:49:47.713Z,0.90
2018-01-05T11:52:15.299Z,1.10
2018-01-05T11:54:43.672Z,0.80
2018-01-05T11:57:11.204Z,1.33
2018-01-05T11:59:38.868Z,0.80
2018-01-05T12:02:06.464Z,0.70
2018-01-05T12:04:36.852Z,0.67
2018-01-05T12:07:05.280Z,0.60
2018-01-05T12:09:32.893Z,0.70
2018-01-05T12:12:00.939Z,0.70
2018-01-05T12:14:28.964Z,0.70
2018-01-05T12:16:57.813Z,0.70
2018-01-05T12:19:25.394Z,0.80
2018-01-05T12:21:53.034Z,0.73
2018-01-05T12:24:20.639Z,1.00
2018-01-05T12:26:48.267Z,1.10
2018-01-05T12:29:15.838Z,1.33
2018-01-05T12:31:44.266Z,1.20
2018-01-05T12:34:11.809Z,1.10
2018-01-05T12:36:39.352Z,0.87
2018-01-05T12:39:07.788Z,0.70
2018-01-05T12:41:35.382Z,0.70
2018-01-05T12:44:02.972Z,0.70
2018-01-05T12:46:30.552Z,0.70
2018-01-05T12:48:58.105Z,0.80
2018-01-05T12:51:25.667Z,0.80
2018-01-05T12:56:56.498Z,1.00
2018-01-05T12:59:24.824Z,0.90
2018-01-05T13:01:53.254Z,0.73
2018-01-05T13:04:21.819Z,0.90
2018-01-05T13:06:50.162Z,0.77
2018-01-05T13:09:17.702Z,0.70
2018-01-05T13:11:45.316Z,1.17
2018-01-05T13:14:13.705Z,1.10
2018-01-05T13:16:42.423Z,0.63
2018-01-05T13:19:16.500Z,1.00
2018-01-05T13:21:44.835Z,0.90
2018-01-05T13:24:12.512Z,0.80
2018-01-05T13:26:40.470Z,1.03
2018-01-05T13:29:08.138Z,1.00
2018-01-05T13:31:35.779Z,1.23
2018-01-05T13:34:03.330Z,1.00
2018-01-05T13:36:30.919Z,0.93
2018-01-05T13:38:59.306Z,1.00
2018-01-05T13:41:26.903Z,1.40
2018-01-05T13:44:07.513Z,1.00
2018-01-05T13:46:35.048Z,0.90
2018-01-05T13:49:02.704Z,1.50
2018-01-05T13:51:30.333Z,1.40
2018-01-05T13:53:58.665Z,1.20
2018-01-05T13:56:32.404Z,1.27
2018-01-05T13:59:00.846Z,1.57
2018-01-05T14:01:28.413Z,1.80
2018-01-05T14:03:55.951Z,1.20
2018-01-05T14:06:23.544Z,1.43
2018-01-05T14:08:51.180Z,1.70
2018-01-05T14:11:18.859Z,2.00
2018-01-05T14:13:46.447Z,2.50
2018-01-05T14:16:13.934Z,2.03
2018-01-05T14:18:41.506Z,1.70
2018-01-05T14:21:09.100Z,2.13
2018-01-05T14:23:36.662Z,13.63
2018-01-05T14:26:04.287Z,10.40
2018-01-05T14:28:31.869Z,4.60
2018-01-05T14:30:59.489Z,3.37
2018-01-05T14:33:27.075Z,12.73
2018-01-05T14:35:54.707Z,14.53
2018-01-05T14:38:22.275Z,2.97
2018-01-05T14:40:49.817Z,2.63
2018-01-05T14:43:17.398Z,4.17
2018-01-05T14:46:03.847Z,2.70
2018-01-05T14:48:31.421Z,3.47
2018-01-05T14:50:59.762Z,2.77
2018-01-05T14:53:27.333Z,2.43
2018-01-05T15:01:44.660Z,2.43
2018-01-05T15:04:12.217Z,3.37
2018-01-05T15:06:39.837Z,3.03
2018-01-05T15:09:07.466Z,2.70
2018-01-05T15:11:35.012Z,6.87
2018-01-05T15:14:02.605Z,4.00
2018-01-05T15:16:30.897Z,3.53
2018-01-05T15:18:59.292Z,5.53
2018-01-05T15:21:26.817Z,3.83
2018-01-05T15:23:54.903Z,3.83
2018-01-05T15:26:22.453Z,3.40
2018-01-05T15:28:50.799Z,11.03
2018-01-05T15:31:18.361Z,17.80
2018-01-05T15:33:46.062Z,9.93
2018-01-05T15:36:14.475Z,2.93
2018-01-05T15:38:42.010Z,4.57
2018-01-05T15:41:09.588Z,3.60
2018-01-05T15:43:37.131Z,3.70
2018-01-05T15:46:29.794Z,3.90
2018-01-05T15:48:57.370Z,5.20
2018-01-05T15:51:24.942Z,5.00
2018-01-05T15:53:52.480Z,5.67
2018-01-05T15:56:20.064Z,6.20
2018-01-05T15:58:47.620Z,6.00
2018-01-05T16:01:15.259Z,9.50
2018-01-05T16:03:42.973Z,34.40
2018-01-05T16:06:10.699Z,10.80
2018-01-05T16:08:38.276Z,8.93
2018-01-05T16:11:05.806Z,13.13
2018-01-05T16:13:33.419Z,14.97
2018-01-05T16:16:01.006Z,14.00
2018-01-05T16:18:28.643Z,19.20
2018-01-05T16:20:56.276Z,15.03
2018-01-05T16:23:23.898Z,20.80
2018-01-05T16:25:52.435Z,22.40
2018-01-05T16:28:20.772Z,21.40
2018-01-05T16:30:48.363Z,22.53
2018-01-05T16:33:15.936Z,20.97
2018-01-05T16:35:44.262Z,17.63
2018-01-05T16:38:11.882Z,12.30
2018-01-05T16:40:39.650Z,8.60
2018-01-05T16:43:07.189Z,9.43
2018-01-05T16:45:35.316Z,15.70
2018-01-05T16:48:02.973Z,11.03
2018-01-05T16:50:30.518Z,11.47
2018-01-05T16:52:58.111Z,11.73
2018-01-05T16:55:25.659Z,13.40
2018-01-05T16:57:53.259Z,10.97
2018-01-05T17:00:21.640Z,9.77
2018-01-05T17:05:50.938Z,8.20
2018-01-05T17:08:18.542Z,6.83
2018-01-05T17:10:46.266Z,6.77
2018-01-05T17:13:14.693Z,7.07
2018-01-05T17:15:42.397Z,6.90
2018-01-05T17:18:09.973Z,7.30
2018-01-05T17:20:39.865Z,8.47
2018-01-05T17:23:07.537Z,19.80
2018-01-05T17:25:36.354Z,23.10
2018-01-05T17:30:57.190Z,5.27
2018-01-05T17:33:24.767Z,3.93
2018-01-05T17:35:52.387Z,4.57
2018-01-05T17:38:39.785Z,3.70
2018-01-05T17:41:07.412Z,3.47
2018-01-05T17:43:35.037Z,3.73
2018-01-05T17:46:03.475Z,5.93
2018-01-05T17:48:31.162Z,6.27
2018-01-05T17:50:58.837Z,5.30
2018-01-05T17:53:27.229Z,4.83
2018-01-05T17:55:55.707Z,3.20
2018-01-05T17:58:23.318Z,2.50
2018-01-05T18:00:50.902Z,3.50
2018-01-05T18:03:19.268Z,4.30
2018-01-05T18:05:46.874Z,4.60
2018-01-05T18:08:14.545Z,4.77
2018-01-05T18:13:37.065Z,6.20
2018-01-05T18:16:05.384Z,11.27
2018-01-05T18:18:32.963Z,12.07
2018-01-05T18:21:08.759Z,7.73
2018-01-05T18:23:37.109Z,8.40
2018-01-05T18:26:04.794Z,10.03
2018-01-05T18:28:33.168Z,9.13
2018-01-05T18:31:01.514Z,14.77
2018-01-05T18:33:29.844Z,13.30
2018-01-05T18:35:57.430Z,10.60
2018-01-05T18:38:25.042Z,13.10
2018-01-05T18:40:53.332Z,13.30
2018-01-05T18:43:20.950Z,12.47
2018-01-05T18:45:48.681Z,16.60
2018-01-05T18:48:16.274Z,19.40
2018-01-05T18:50:43.913Z,13.50
2018-01-05T18:53:11.661Z,13.13
2018-01-05T18:55:39.307Z,13.47
2018-01-05T18:58:07.641Z,12.77
2018-01-05T19:00:35.380Z,17.23
2018-01-05T19:03:03.005Z,13.97
2018-01-05T19:05:30.615Z,14.70
2018-01-05T19:07:58.659Z,16.27
2018-01-05T19:10:26.379Z,14.60
2018-01-05T19:12:53.900Z,14.80
2018-01-05T19:15:24.569Z,20.67
2018-01-05T19:17:52.941Z,15.33
2018-01-05T19:20:21.274Z,12.80
2018-01-05T19:22:58.716Z,12.97
2018-01-05T19:25:26.294Z,13.87
2018-01-05T19:27:53.995Z,18.30
2018-01-05T19:30:21.696Z,22.33
2018-01-05T19:32:50.042Z,21.67
2018-01-05T19:38:17.354Z,15.83
2018-01-05T19:40:45.703Z,17.10
2018-01-05T19:43:13.330Z,18.77
2018-01-05T19:45:40.990Z,23.17
2018-01-05T19:48:08.672Z,23.00
2018-01-05T19:50:49.284Z,23.80
2018-01-05T19:53:17.617Z,21.83
2018-01-05T19:55:45.227Z,21.13
2018-01-05T19:58:13.594Z,20.67
2018-01-05T20:00:41.236Z,22.20
2018-01-05T20:03:08.807Z,17.73
2018-01-05T20:05:37.198Z,16.40
2018-01-05T20:08:05.633Z,14.23
2018-01-05T20:10:34.092Z,13.70
2018-01-05T20:13:01.751Z,11.87
2018-01-05T20:15:30.604Z,9.80
2018-01-05T20:17:58.967Z,8.93
2018-01-05T20:23:21.322Z,13.63
2018-01-05T20:25:48.940Z,14.17
2018-01-05T20:28:16.661Z,18.37
2018-01-05T20:30:44.981Z,10.90
2018-01-05T20:33:12.550Z,7.90
2018-01-05T20:38:41.471Z,6.30
2018-01-05T20:41:09.037Z,6.53
2018-01-05T20:43:42.460Z,5.23
2018-01-05T20:46:10.099Z,4.10
2018-01-05T20:48:37.738Z,5.13
2018-01-05T20:51:05.355Z,4.97
2018-01-05T20:53:51.568Z,6.10
2018-01-05T20:56:19.167Z,6.80
2018-01-05T20:58:46.771Z,7.03
2018-01-05T21:01:15.315Z,4.37
2018-01-05T21:03:43.409Z,5.33
2018-01-05T21:06:11.864Z,4.00
2018-01-05T21:08:39.425Z,5.27
2018-01-05T21:11:07.762Z,7.30
2018-01-05T21:13:35.327Z,6.93
2018-01-05T21:16:02.977Z,6.20
2018-01-05T21:18:30.532Z,5.80
2018-01-05T21:20:58.167Z,5.60
2018-01-05T21:23:26.560Z,8.07
2018-01-05T21:25:55.120Z,8.47
2018-01-05T21:28:23.498Z,4.67
2018-01-05T21:30:51.246Z,4.97
2018-01-05T21:33:18.997Z,6.00
2018-01-05T21:35:46.827Z,6.80
2018-01-05T21:38:25.339Z,6.27
2018-01-05T21:40:52.967Z,6.47
2018-01-05T21:46:15.712Z,7.10
2018-01-05T21:48:45.249Z,6.87
2018-01-05T21:51:13.742Z,7.07
2018-01-05T21:53:42.066Z,7.10
2018-01-05T21:59:22.461Z,9.13
2018-01-05T22:01:50.069Z,8.40
2018-01-05T22:04:17.700Z,7.77
2018-01-05T22:06:45.299Z,7.60
2018-01-05T22:09:12.860Z,9.53
2018-01-05T22:11:40.509Z,9.43
2018-01-05T22:14:08.092Z,7.73
2018-01-05T22:16:35.715Z,9.27
2018-01-05T22:24:50.172Z,8.53
2018-01-05T22:27:17.763Z,7.47
2018-01-05T22:29:45.752Z,6.20
2018-01-05T22:32:38.692Z,6.43
2018-01-05T22:35:06.767Z,5.70
2018-01-05T22:37:34.706Z,8.00
2018-01-05T22:40:02.930Z,6.67
2018-01-05T22:42:30.601Z,8.50
2018-01-05T22:44:58.197Z,8.00
2018-01-05T22:47:25.809Z,8.70
2018-01-05T22:50:10.160Z,7.07
2018-01-05T22:52:37.838Z,6.50
2018-01-05T23:01:08.575Z,7.80
2018-01-05T23:03:40.051Z,7.73
2018-01-05T23:06:14.226Z,6.97
2018-01-05T23:08:43.228Z,6.73
2018-01-05T23:11:18.166Z,6.90
2018-01-05T23:13:46.096Z,6.37
2018-01-05T23:16:14.504Z,6.73
2018-01-05T23:18:43.211Z,8.50
2018-01-05T23:21:11.921Z,8.10
2018-01-05T23:23:43.096Z,6.73
2018-01-05T23:26:13.781Z,8.27
2018-01-05T23:28:44.623Z,6.90
2018-01-05T23:31:12.456Z,6.43
2018-01-05T23:33:44.009Z,6.00
2018-01-05T23:36:11.752Z,6.13
2018-01-05T23:38:39.530Z,6.87
2018-01-05T23:41:07.610Z,7.53
2018-01-05T23:43:35.306Z,8.23
2018-01-05T23:46:04.057Z,7.67
2018-01-05T23:48:32.235Z,7.67
2018-01-05T23:51:00.017Z,7.10
2018-01-05T23:53:27.776Z,6.40
2018-01-05T23:55:56.755Z,6.77
2018-01-05T23:58:37.941Z,6.47
